Aviation Digital Data Service (ADDS)

Output produced by TAFs form (2335 UTC 25 May 2015)
found at http://aviationweather.gov/adds/tafs/
 
KSAF 251732Z 2518/2618 27012G22KT P6SM SCT050 
     FM252000 27015G24KT P6SM VCTS BKN050CB 
     FM260200 31009KT P6SM BKN050 
     FM260600 36007KT P6SM FEW050